sensor_id;sensor_type;location;lat;lon;timestamp;P1;durP1;ratioP1;P2;durP2;ratioP2
68940;SDS011;55982;51.476;7.552;2022-10-16T00:00:16;10.70;;;5.38;;
68940;SDS011;55982;51.476;7.552;2022-10-16T00:02:42;13.30;;;5.28;;
68940;SDS011;55982;51.476;7.552;2022-10-16T00:05:07;7.72;;;5.30;;
68940;SDS011;55982;51.476;7.552;2022-10-16T00:07:32;12.15;;;5.93;;
68940;SDS011;55982;51.476;7.552;2022-10-16T00:09:58;9.57;;;5.28;;
68940;SDS011;55982;51.476;7.552;2022-10-16T00:12:23;10.10;;;5.28;;
68940;SDS011;55982;51.476;7.552;2022-10-16T00:14:48;14.30;;;4.80;;
68940;SDS011;55982;51.476;7.552;2022-10-16T00:17:14;12.02;;;4.93;;
68940;SDS011;55982;51.476;7.552;2022-10-16T00:19:39;7.80;;;4.47;;
68940;SDS011;55982;51.476;7.552;2022-10-16T00:22:04;7.25;;;4.38;;
68940;SDS011;55982;51.476;7.552;2022-10-16T00:24:30;10.07;;;4.82;;
68940;SDS011;55982;51.476;7.552;2022-10-16T00:26:55;7.63;;;4.68;;
68940;SDS011;55982;51.476;7.552;2022-10-16T00:29:20;8.50;;;5.00;;
68940;SDS011;55982;51.476;7.552;2022-10-16T00:31:46;13.38;;;5.72;;
68940;SDS011;55982;51.476;7.552;2022-10-16T00:34:11;8.68;;;5.07;;
68940;SDS011;55982;51.476;7.552;2022-10-16T00:36:36;8.43;;;5.13;;
68940;SDS011;55982;51.476;7.552;2022-10-16T00:39:02;8.82;;;5.00;;
68940;SDS011;55982;51.476;7.552;2022-10-16T00:41:28;9.15;;;5.50;;
68940;SDS011;55982;51.476;7.552;2022-10-16T00:43:56;7.30;;;4.93;;
68940;SDS011;55982;51.476;7.552;2022-10-16T00:46:27;8.32;;;4.63;;
68940;SDS011;55982;51.476;7.552;2022-10-16T00:49:08;7.45;;;3.88;;
68940;SDS011;55982;51.476;7.552;2022-10-16T00:51:43;7.40;;;4.10;;
68940;SDS011;55982;51.476;7.552;2022-10-16T00:54:13;7.65;;;4.13;;
68940;SDS011;55982;51.476;7.552;2022-10-16T00:56:41;9.93;;;3.83;;
68940;SDS011;55982;51.476;7.552;2022-10-16T00:59:14;6.95;;;3.38;;
68940;SDS011;55982;51.476;7.552;2022-10-16T01:01:41;11.25;;;3.83;;
68940;SDS011;55982;51.476;7.552;2022-10-16T01:04:07;5.95;;;3.05;;
68940;SDS011;55982;51.476;7.552;2022-10-16T01:06:36;6.22;;;3.35;;
68940;SDS011;55982;51.476;7.552;2022-10-16T01:09:16;9.13;;;3.35;;
68940;SDS011;55982;51.476;7.552;2022-10-16T01:14:39;8.23;;;3.47;;
68940;SDS011;55982;51.476;7.552;2022-10-16T01:28:51;5.60;;;3.72;;
68940;SDS011;55982;51.476;7.552;2022-10-16T01:31:22;10.00;;;3.97;;
68940;SDS011;55982;51.476;7.552;2022-10-16T01:33:51;8.27;;;3.78;;
68940;SDS011;55982;51.476;7.552;2022-10-16T01:36:28;11.55;;;3.97;;
68940;SDS011;55982;51.476;7.552;2022-10-16T01:39:00;5.32;;;3.70;;
68940;SDS011;55982;51.476;7.552;2022-10-16T01:41:30;7.85;;;3.58;;
68940;SDS011;55982;51.476;7.552;2022-10-16T01:44:08;6.53;;;3.97;;
68940;SDS011;55982;51.476;7.552;2022-10-16T01:46:39;5.28;;;3.63;;
68940;SDS011;55982;51.476;7.552;2022-10-16T01:49:06;6.18;;;3.65;;
68940;SDS011;55982;51.476;7.552;2022-10-16T01:51:34;7.93;;;4.28;;
68940;SDS011;55982;51.476;7.552;2022-10-16T01:54:02;10.35;;;4.55;;
68940;SDS011;55982;51.476;7.552;2022-10-16T01:56:30;8.02;;;4.25;;
68940;SDS011;55982;51.476;7.552;2022-10-16T01:58:58;8.50;;;4.13;;
68940;SDS011;55982;51.476;7.552;2022-10-16T02:01:26;7.45;;;4.00;;
68940;SDS011;55982;51.476;7.552;2022-10-16T02:03:56;8.65;;;4.03;;
68940;SDS011;55982;51.476;7.552;2022-10-16T02:06:28;5.32;;;3.58;;
68940;SDS011;55982;51.476;7.552;2022-10-16T02:08:54;5.50;;;3.72;;
68940;SDS011;55982;51.476;7.552;2022-10-16T02:11:20;10.30;;;3.50;;
68940;SDS011;55982;51.476;7.552;2022-10-16T02:13:46;4.07;;;3.50;;
68940;SDS011;55982;51.476;7.552;2022-10-16T02:16:16;6.57;;;3.10;;
68940;SDS011;55982;51.476;7.552;2022-10-16T02:18:42;4.45;;;3.40;;
68940;SDS011;55982;51.476;7.552;2022-10-16T02:21:14;5.15;;;3.40;;
68940;SDS011;55982;51.476;7.552;2022-10-16T02:26:13;6.20;;;3.33;;
68940;SDS011;55982;51.476;7.552;2022-10-16T02:28:45;9.50;;;3.53;;
68940;SDS011;55982;51.476;7.552;2022-10-16T02:31:15;3.92;;;3.47;;
68940;SDS011;55982;51.476;7.552;2022-10-16T02:33:45;7.45;;;3.47;;
68940;SDS011;55982;51.476;7.552;2022-10-16T02:36:11;5.93;;;3.70;;
68940;SDS011;55982;51.476;7.552;2022-10-16T02:38:37;8.60;;;3.50;;
68940;SDS011;55982;51.476;7.552;2022-10-16T02:41:04;8.02;;;3.42;;
68940;SDS011;55982;51.476;7.552;2022-10-16T02:43:30;8.00;;;3.95;;
68940;SDS011;55982;51.476;7.552;2022-10-16T02:45:56;5.75;;;4.43;;
68940;SDS011;55982;51.476;7.552;2022-10-16T02:48:22;8.50;;;3.63;;
68940;SDS011;55982;51.476;7.552;2022-10-16T02:50:47;4.28;;;3.33;;
68940;SDS011;55982;51.476;7.552;2022-10-16T02:53:12;3.75;;;3.33;;
68940;SDS011;55982;51.476;7.552;2022-10-16T02:55:38;6.47;;;3.60;;
68940;SDS011;55982;51.476;7.552;2022-10-16T02:58:03;4.80;;;3.65;;
68940;SDS011;55982;51.476;7.552;2022-10-16T03:00:28;4.28;;;3.60;;
68940;SDS011;55982;51.476;7.552;2022-10-16T03:02:54;9.93;;;3.42;;
68940;SDS011;55982;51.476;7.552;2022-10-16T03:05:19;4.25;;;3.40;;
68940;SDS011;55982;51.476;7.552;2022-10-16T03:07:45;4.55;;;3.40;;
68940;SDS011;55982;51.476;7.552;2022-10-16T03:10:10;3.92;;;3.28;;
68940;SDS011;55982;51.476;7.552;2022-10-16T03:12:35;5.18;;;3.40;;
68940;SDS011;55982;51.476;7.552;2022-10-16T03:15:01;4.90;;;3.10;;
68940;SDS011;55982;51.476;7.552;2022-10-16T03:17:26;7.38;;;3.15;;
68940;SDS011;55982;51.476;7.552;2022-10-16T03:19:51;4.00;;;3.22;;
68940;SDS011;55982;51.476;7.552;2022-10-16T03:22:17;4.85;;;2.90;;
68940;SDS011;55982;51.476;7.552;2022-10-16T03:24:42;4.95;;;2.88;;
68940;SDS011;55982;51.476;7.552;2022-10-16T03:27:08;3.15;;;2.67;;
68940;SDS011;55982;51.476;7.552;2022-10-16T03:29:33;6.13;;;3.30;;
68940;SDS011;55982;51.476;7.552;2022-10-16T03:31:59;6.40;;;3.20;;
68940;SDS011;55982;51.476;7.552;2022-10-16T03:34:24;5.22;;;2.80;;
68940;SDS011;55982;51.476;7.552;2022-10-16T03:36:50;6.93;;;3.13;;
68940;SDS011;55982;51.476;7.552;2022-10-16T03:39:16;4.45;;;3.30;;
68940;SDS011;55982;51.476;7.552;2022-10-16T03:41:41;5.30;;;3.10;;
68940;SDS011;55982;51.476;7.552;2022-10-16T03:44:06;4.95;;;2.60;;
68940;SDS011;55982;51.476;7.552;2022-10-16T03:46:32;4.20;;;2.70;;
68940;SDS011;55982;51.476;7.552;2022-10-16T03:48:57;4.85;;;2.75;;
68940;SDS011;55982;51.476;7.552;2022-10-16T03:51:23;4.45;;;2.80;;
68940;SDS011;55982;51.476;7.552;2022-10-16T03:53:48;7.38;;;2.80;;
68940;SDS011;55982;51.476;7.552;2022-10-16T03:56:14;6.30;;;3.08;;
68940;SDS011;55982;51.476;7.552;2022-10-16T03:58:39;3.05;;;2.50;;
68940;SDS011;55982;51.476;7.552;2022-10-16T04:01:04;5.20;;;2.70;;
68940;SDS011;55982;51.476;7.552;2022-10-16T04:03:30;7.15;;;2.85;;
68940;SDS011;55982;51.476;7.552;2022-10-16T04:05:55;5.25;;;2.78;;
68940;SDS011;55982;51.476;7.552;2022-10-16T04:08:21;6.30;;;2.88;;
68940;SDS011;55982;51.476;7.552;2022-10-16T04:10:47;8.30;;;2.63;;
68940;SDS011;55982;51.476;7.552;2022-10-16T04:13:12;4.60;;;2.70;;
68940;SDS011;55982;51.476;7.552;2022-10-16T04:15:38;4.40;;;2.83;;
68940;SDS011;55982;51.476;7.552;2022-10-16T04:18:04;5.45;;;2.90;;
68940;SDS011;55982;51.476;7.552;2022-10-16T04:20:30;5.78;;;3.00;;
68940;SDS011;55982;51.476;7.552;2022-10-16T04:22:55;3.85;;;3.03;;
68940;SDS011;55982;51.476;7.552;2022-10-16T04:25:21;5.47;;;3.00;;
68940;SDS011;55982;51.476;7.552;2022-10-16T04:27:47;4.13;;;2.40;;
68940;SDS011;55982;51.476;7.552;2022-10-16T04:30:13;4.55;;;2.60;;
68940;SDS011;55982;51.476;7.552;2022-10-16T04:32:38;4.50;;;2.80;;
68940;SDS011;55982;51.476;7.552;2022-10-16T04:35:04;7.82;;;3.00;;
68940;SDS011;55982;51.476;7.552;2022-10-16T04:37:29;4.05;;;3.17;;
68940;SDS011;55982;51.476;7.552;2022-10-16T04:39:55;6.78;;;3.08;;
68940;SDS011;55982;51.476;7.552;2022-10-16T04:42:20;6.60;;;2.75;;
68940;SDS011;55982;51.476;7.552;2022-10-16T04:44:46;3.75;;;2.30;;
68940;SDS011;55982;51.476;7.552;2022-10-16T04:47:12;4.47;;;2.25;;
68940;SDS011;55982;51.476;7.552;2022-10-16T04:49:38;3.65;;;2.45;;
68940;SDS011;55982;51.476;7.552;2022-10-16T04:52:03;4.05;;;2.58;;
68940;SDS011;55982;51.476;7.552;2022-10-16T04:54:29;3.88;;;2.63;;
68940;SDS011;55982;51.476;7.552;2022-10-16T04:56:54;5.97;;;2.63;;
68940;SDS011;55982;51.476;7.552;2022-10-16T04:59:20;6.43;;;2.42;;
68940;SDS011;55982;51.476;7.552;2022-10-16T05:01:46;4.70;;;2.42;;
68940;SDS011;55982;51.476;7.552;2022-10-16T05:04:11;4.03;;;2.70;;
68940;SDS011;55982;51.476;7.552;2022-10-16T05:06:37;4.80;;;2.72;;
68940;SDS011;55982;51.476;7.552;2022-10-16T05:09:03;4.60;;;2.58;;
68940;SDS011;55982;51.476;7.552;2022-10-16T05:11:32;3.70;;;2.30;;
68940;SDS011;55982;51.476;7.552;2022-10-16T05:13:57;3.47;;;2.20;;
68940;SDS011;55982;51.476;7.552;2022-10-16T05:16:23;4.93;;;2.55;;
68940;SDS011;55982;51.476;7.552;2022-10-16T05:18:48;8.88;;;2.63;;
68940;SDS011;55982;51.476;7.552;2022-10-16T05:21:14;3.08;;;2.20;;
68940;SDS011;55982;51.476;7.552;2022-10-16T05:23:40;5.78;;;2.53;;
68940;SDS011;55982;51.476;7.552;2022-10-16T05:26:05;2.13;;;2.00;;
68940;SDS011;55982;51.476;7.552;2022-10-16T05:28:31;5.88;;;2.22;;
68940;SDS011;55982;51.476;7.552;2022-10-16T05:30:56;4.50;;;2.38;;
68940;SDS011;55982;51.476;7.552;2022-10-16T05:33:23;17.63;;;3.22;;
68940;SDS011;55982;51.476;7.552;2022-10-16T05:35:49;3.22;;;2.25;;
68940;SDS011;55982;51.476;7.552;2022-10-16T05:38:15;2.58;;;2.15;;
68940;SDS011;55982;51.476;7.552;2022-10-16T05:40:42;6.75;;;2.30;;
68940;SDS011;55982;51.476;7.552;2022-10-16T05:43:08;3.20;;;2.17;;
68940;SDS011;55982;51.476;7.552;2022-10-16T05:45:33;2.28;;;2.08;;
68940;SDS011;55982;51.476;7.552;2022-10-16T05:47:59;2.90;;;2.10;;
68940;SDS011;55982;51.476;7.552;2022-10-16T05:50:25;2.65;;;1.90;;
68940;SDS011;55982;51.476;7.552;2022-10-16T05:52:50;3.95;;;1.90;;
68940;SDS011;55982;51.476;7.552;2022-10-16T05:55:15;4.10;;;2.10;;
68940;SDS011;55982;51.476;7.552;2022-10-16T05:57:41;4.00;;;2.30;;
68940;SDS011;55982;51.476;7.552;2022-10-16T06:00:06;5.57;;;2.38;;
68940;SDS011;55982;51.476;7.552;2022-10-16T06:02:32;2.78;;;2.45;;
68940;SDS011;55982;51.476;7.552;2022-10-16T06:04:57;5.57;;;2.50;;
68940;SDS011;55982;51.476;7.552;2022-10-16T06:07:23;3.20;;;2.60;;
68940;SDS011;55982;51.476;7.552;2022-10-16T06:09:52;2.95;;;2.45;;
68940;SDS011;55982;51.476;7.552;2022-10-16T06:12:18;2.92;;;2.60;;
68940;SDS011;55982;51.476;7.552;2022-10-16T06:14:45;3.13;;;2.25;;
68940;SDS011;55982;51.476;7.552;2022-10-16T06:17:12;7.35;;;2.33;;
68940;SDS011;55982;51.476;7.552;2022-10-16T06:19:38;2.17;;;2.00;;
68940;SDS011;55982;51.476;7.552;2022-10-16T06:22:03;4.57;;;2.35;;
68940;SDS011;55982;51.476;7.552;2022-10-16T06:24:29;3.05;;;2.08;;
68940;SDS011;55982;51.476;7.552;2022-10-16T06:26:54;3.28;;;2.17;;
68940;SDS011;55982;51.476;7.552;2022-10-16T06:29:20;5.53;;;2.58;;
68940;SDS011;55982;51.476;7.552;2022-10-16T06:31:45;2.60;;;2.17;;
68940;SDS011;55982;51.476;7.552;2022-10-16T06:34:10;6.90;;;2.30;;
68940;SDS011;55982;51.476;7.552;2022-10-16T06:36:36;6.00;;;2.38;;
68940;SDS011;55982;51.476;7.552;2022-10-16T06:39:02;5.53;;;2.38;;
68940;SDS011;55982;51.476;7.552;2022-10-16T06:41:28;3.00;;;2.40;;
68940;SDS011;55982;51.476;7.552;2022-10-16T06:43:54;4.00;;;2.15;;
68940;SDS011;55982;51.476;7.552;2022-10-16T06:46:20;5.22;;;2.28;;
68940;SDS011;55982;51.476;7.552;2022-10-16T06:48:47;3.38;;;2.45;;
68940;SDS011;55982;51.476;7.552;2022-10-16T06:51:17;2.65;;;1.90;;
68940;SDS011;55982;51.476;7.552;2022-10-16T06:53:45;3.92;;;1.73;;
68940;SDS011;55982;51.476;7.552;2022-10-16T06:56:15;3.85;;;2.38;;
68940;SDS011;55982;51.476;7.552;2022-10-16T06:58:42;2.08;;;1.88;;
68940;SDS011;55982;51.476;7.552;2022-10-16T07:01:08;2.50;;;2.05;;
68940;SDS011;55982;51.476;7.552;2022-10-16T07:03:36;3.35;;;1.90;;
68940;SDS011;55982;51.476;7.552;2022-10-16T07:06:03;5.47;;;2.10;;
68940;SDS011;55982;51.476;7.552;2022-10-16T07:08:30;2.08;;;1.73;;
68940;SDS011;55982;51.476;7.552;2022-10-16T07:11:04;4.32;;;1.80;;
68940;SDS011;55982;51.476;7.552;2022-10-16T07:13:32;2.88;;;1.65;;
68940;SDS011;55982;51.476;7.552;2022-10-16T07:16:03;3.97;;;1.58;;
68940;SDS011;55982;51.476;7.552;2022-10-16T07:18:33;2.47;;;1.83;;
68940;SDS011;55982;51.476;7.552;2022-10-16T07:21:15;2.92;;;1.80;;
68940;SDS011;55982;51.476;7.552;2022-10-16T07:23:42;2.45;;;1.20;;
68940;SDS011;55982;51.476;7.552;2022-10-16T07:26:09;7.38;;;1.90;;
68940;SDS011;55982;51.476;7.552;2022-10-16T07:28:35;4.85;;;1.40;;
68940;SDS011;55982;51.476;7.552;2022-10-16T07:31:01;6.47;;;1.73;;
68940;SDS011;55982;51.476;7.552;2022-10-16T07:33:29;3.85;;;1.30;;
68940;SDS011;55982;51.476;7.552;2022-10-16T07:35:54;8.15;;;1.95;;
68940;SDS011;55982;51.476;7.552;2022-10-16T07:38:20;2.40;;;1.30;;
68940;SDS011;55982;51.476;7.552;2022-10-16T07:40:46;4.30;;;1.58;;
68940;SDS011;55982;51.476;7.552;2022-10-16T07:43:13;1.63;;;1.48;;
68940;SDS011;55982;51.476;7.552;2022-10-16T07:45:49;4.80;;;1.58;;
68940;SDS011;55982;51.476;7.552;2022-10-16T07:48:15;3.28;;;1.83;;
68940;SDS011;55982;51.476;7.552;2022-10-16T07:50:42;2.53;;;1.63;;
68940;SDS011;55982;51.476;7.552;2022-10-16T07:53:08;2.67;;;1.63;;
68940;SDS011;55982;51.476;7.552;2022-10-16T07:55:34;3.70;;;1.83;;
68940;SDS011;55982;51.476;7.552;2022-10-16T07:57:59;3.72;;;1.90;;
68940;SDS011;55982;51.476;7.552;2022-10-16T08:00:24;1.83;;;1.58;;
68940;SDS011;55982;51.476;7.552;2022-10-16T08:02:50;2.55;;;1.60;;
68940;SDS011;55982;51.476;7.552;2022-10-16T08:05:15;7.18;;;1.90;;
68940;SDS011;55982;51.476;7.552;2022-10-16T08:07:40;3.75;;;1.48;;
68940;SDS011;55982;51.476;7.552;2022-10-16T08:10:06;4.63;;;1.73;;
68940;SDS011;55982;51.476;7.552;2022-10-16T08:12:31;5.35;;;1.40;;
68940;SDS011;55982;51.476;7.552;2022-10-16T08:14:57;1.55;;;1.25;;
68940;SDS011;55982;51.476;7.552;2022-10-16T08:17:22;2.97;;;1.50;;
68940;SDS011;55982;51.476;7.552;2022-10-16T08:19:47;3.20;;;1.25;;
68940;SDS011;55982;51.476;7.552;2022-10-16T08:22:13;2.60;;;1.30;;
68940;SDS011;55982;51.476;7.552;2022-10-16T08:24:39;1.60;;;1.20;;
68940;SDS011;55982;51.476;7.552;2022-10-16T08:27:05;8.25;;;1.70;;
68940;SDS011;55982;51.476;7.552;2022-10-16T08:29:32;2.78;;;1.20;;
68940;SDS011;55982;51.476;7.552;2022-10-16T08:31:57;4.72;;;0.98;;
68940;SDS011;55982;51.476;7.552;2022-10-16T08:34:23;3.40;;;1.25;;
68940;SDS011;55982;51.476;7.552;2022-10-16T08:36:48;1.67;;;1.17;;
68940;SDS011;55982;51.476;7.552;2022-10-16T08:39:14;2.35;;;1.08;;
68940;SDS011;55982;51.476;7.552;2022-10-16T08:52:29;1.83;;;1.00;;
68940;SDS011;55982;51.476;7.552;2022-10-16T08:54:59;2.28;;;0.93;;
68940;SDS011;55982;51.476;7.552;2022-10-16T08:57:24;1.50;;;0.80;;
68940;SDS011;55982;51.476;7.552;2022-10-16T08:59:55;1.00;;;0.70;;
68940;SDS011;55982;51.476;7.552;2022-10-16T09:02:49;3.88;;;0.82;;
68940;SDS011;55982;51.476;7.552;2022-10-16T09:11:00;0.73;;;0.43;;
68940;SDS011;55982;51.476;7.552;2022-10-16T09:13:36;1.85;;;0.75;;
68940;SDS011;55982;51.476;7.552;2022-10-16T09:16:22;2.65;;;0.77;;
68940;SDS011;55982;51.476;7.552;2022-10-16T09:21:20;4.97;;;0.70;;
68940;SDS011;55982;51.476;7.552;2022-10-16T09:23:49;3.00;;;0.80;;
68940;SDS011;55982;51.476;7.552;2022-10-16T09:26:15;5.07;;;0.88;;
68940;SDS011;55982;51.476;7.552;2022-10-16T09:28:41;2.47;;;0.73;;
68940;SDS011;55982;51.476;7.552;2022-10-16T09:31:17;1.83;;;0.50;;
68940;SDS011;55982;51.476;7.552;2022-10-16T09:33:45;6.68;;;1.00;;
68940;SDS011;55982;51.476;7.552;2022-10-16T09:36:15;1.35;;;0.60;;
68940;SDS011;55982;51.476;7.552;2022-10-16T09:38:41;1.73;;;0.70;;
68940;SDS011;55982;51.476;7.552;2022-10-16T09:43:46;3.67;;;0.63;;
68940;SDS011;55982;51.476;7.552;2022-10-16T09:49:18;2.53;;;0.63;;
68940;SDS011;55982;51.476;7.552;2022-10-16T09:51:47;2.17;;;0.63;;
68940;SDS011;55982;51.476;7.552;2022-10-16T09:54:14;4.55;;;0.55;;
68940;SDS011;55982;51.476;7.552;2022-10-16T09:56:41;2.95;;;0.70;;
68940;SDS011;55982;51.476;7.552;2022-10-16T09:59:11;3.28;;;0.70;;
68940;SDS011;55982;51.476;7.552;2022-10-16T10:01:47;5.88;;;0.90;;
68940;SDS011;55982;51.476;7.552;2022-10-16T10:04:16;1.88;;;0.55;;
68940;SDS011;55982;51.476;7.552;2022-10-16T10:06:43;2.53;;;0.88;;
68940;SDS011;55982;51.476;7.552;2022-10-16T10:12:03;4.07;;;0.80;;
68940;SDS011;55982;51.476;7.552;2022-10-16T10:17:22;3.90;;;0.90;;
68940;SDS011;55982;51.476;7.552;2022-10-16T10:19:57;2.42;;;0.50;;
68940;SDS011;55982;51.476;7.552;2022-10-16T10:22:43;1.70;;;0.57;;
68940;SDS011;55982;51.476;7.552;2022-10-16T10:41:09;4.03;;;0.70;;
68940;SDS011;55982;51.476;7.552;2022-10-16T10:46:36;5.05;;;0.68;;
68940;SDS011;55982;51.476;7.552;2022-10-16T10:51:57;2.38;;;0.60;;
68940;SDS011;55982;51.476;7.552;2022-10-16T11:00:14;2.97;;;0.70;;
68940;SDS011;55982;51.476;7.552;2022-10-16T11:02:55;4.28;;;0.80;;
68940;SDS011;55982;51.476;7.552;2022-10-16T11:05:40;1.67;;;0.68;;
68940;SDS011;55982;51.476;7.552;2022-10-16T11:11:00;1.65;;;0.38;;
68940;SDS011;55982;51.476;7.552;2022-10-16T11:15:57;1.33;;;0.65;;
68940;SDS011;55982;51.476;7.552;2022-10-16T11:18:30;2.47;;;0.52;;
68940;SDS011;55982;51.476;7.552;2022-10-16T11:21:08;2.70;;;0.60;;
68940;SDS011;55982;51.476;7.552;2022-10-16T11:23:39;1.98;;;0.60;;
68940;SDS011;55982;51.476;7.552;2022-10-16T11:26:12;4.15;;;0.70;;
68940;SDS011;55982;51.476;7.552;2022-10-16T11:28:47;1.70;;;0.70;;
68940;SDS011;55982;51.476;7.552;2022-10-16T11:31:36;2.58;;;0.77;;
68940;SDS011;55982;51.476;7.552;2022-10-16T11:36:48;1.88;;;0.75;;
68940;SDS011;55982;51.476;7.552;2022-10-16T11:39:22;1.27;;;0.63;;
68940;SDS011;55982;51.476;7.552;2022-10-16T11:41:52;2.42;;;0.65;;
68940;SDS011;55982;51.476;7.552;2022-10-16T11:49:50;2.47;;;0.50;;
68940;SDS011;55982;51.476;7.552;2022-10-16T11:52:25;2.75;;;0.60;;
68940;SDS011;55982;51.476;7.552;2022-10-16T11:57:35;2.88;;;0.70;;
68940;SDS011;55982;51.476;7.552;2022-10-16T12:00:33;4.50;;;0.60;;
68940;SDS011;55982;51.476;7.552;2022-10-16T12:03:20;3.38;;;0.52;;
68940;SDS011;55982;51.476;7.552;2022-10-16T12:08:22;3.78;;;0.52;;
68940;SDS011;55982;51.476;7.552;2022-10-16T12:10:48;3.40;;;0.60;;
68940;SDS011;55982;51.476;7.552;2022-10-16T12:18:42;2.13;;;0.50;;
68940;SDS011;55982;51.476;7.552;2022-10-16T12:21:09;2.20;;;0.82;;
68940;SDS011;55982;51.476;7.552;2022-10-16T12:23:54;1.48;;;0.60;;
68940;SDS011;55982;51.476;7.552;2022-10-16T12:26:33;1.60;;;0.50;;
68940;SDS011;55982;51.476;7.552;2022-10-16T12:32:05;2.15;;;0.65;;
68940;SDS011;55982;51.476;7.552;2022-10-16T12:34:47;1.85;;;0.50;;
68940;SDS011;55982;51.476;7.552;2022-10-16T12:39:43;2.47;;;0.75;;
68940;SDS011;55982;51.476;7.552;2022-10-16T12:42:22;4.25;;;0.50;;
68940;SDS011;55982;51.476;7.552;2022-10-16T12:44:51;4.03;;;0.50;;
68940;SDS011;55982;51.476;7.552;2022-10-16T12:47:24;4.18;;;0.52;;
68940;SDS011;55982;51.476;7.552;2022-10-16T12:50:01;2.17;;;0.50;;
68940;SDS011;55982;51.476;7.552;2022-10-16T12:54:55;4.18;;;0.50;;
68940;SDS011;55982;51.476;7.552;2022-10-16T13:16:13;4.63;;;0.70;;
68940;SDS011;55982;51.476;7.552;2022-10-16T13:23:56;4.00;;;0.60;;
68940;SDS011;55982;51.476;7.552;2022-10-16T13:29:14;1.75;;;0.55;;
68940;SDS011;55982;51.476;7.552;2022-10-16T13:31:39;2.95;;;0.55;;
68940;SDS011;55982;51.476;7.552;2022-10-16T13:34:05;1.27;;;0.60;;
68940;SDS011;55982;51.476;7.552;2022-10-16T13:36:50;3.42;;;0.65;;
68940;SDS011;55982;51.476;7.552;2022-10-16T13:39:29;1.73;;;0.70;;
68940;SDS011;55982;51.476;7.552;2022-10-16T13:44:31;4.35;;;0.65;;
68940;SDS011;55982;51.476;7.552;2022-10-16T13:47:02;3.35;;;0.77;;
68940;SDS011;55982;51.476;7.552;2022-10-16T13:49:28;3.72;;;0.68;;
68940;SDS011;55982;51.476;7.552;2022-10-16T13:51:54;3.22;;;1.02;;
68940;SDS011;55982;51.476;7.552;2022-10-16T13:54:21;2.03;;;0.50;;
68940;SDS011;55982;51.476;7.552;2022-10-16T13:56:46;0.50;;;0.40;;
68940;SDS011;55982;51.476;7.552;2022-10-16T13:59:25;1.70;;;0.50;;
68940;SDS011;55982;51.476;7.552;2022-10-16T14:01:57;1.27;;;0.70;;
68940;SDS011;55982;51.476;7.552;2022-10-16T14:04:23;3.65;;;0.73;;
68940;SDS011;55982;51.476;7.552;2022-10-16T14:06:57;2.17;;;0.50;;
68940;SDS011;55982;51.476;7.552;2022-10-16T14:09:29;0.93;;;0.50;;
68940;SDS011;55982;51.476;7.552;2022-10-16T14:11:56;2.63;;;0.55;;
68940;SDS011;55982;51.476;7.552;2022-10-16T14:14:26;2.75;;;0.82;;
68940;SDS011;55982;51.476;7.552;2022-10-16T14:16:55;5.45;;;0.50;;
68940;SDS011;55982;51.476;7.552;2022-10-16T14:19:22;2.50;;;0.50;;
68940;SDS011;55982;51.476;7.552;2022-10-16T14:21:50;2.22;;;0.55;;
68940;SDS011;55982;51.476;7.552;2022-10-16T14:26:49;3.50;;;0.65;;
68940;SDS011;55982;51.476;7.552;2022-10-16T14:29:17;2.00;;;0.80;;
68940;SDS011;55982;51.476;7.552;2022-10-16T14:31:53;2.60;;;0.70;;
68940;SDS011;55982;51.476;7.552;2022-10-16T14:34:24;5.85;;;0.70;;
68940;SDS011;55982;51.476;7.552;2022-10-16T14:36:55;4.32;;;0.80;;
68940;SDS011;55982;51.476;7.552;2022-10-16T14:39:22;3.10;;;0.50;;
68940;SDS011;55982;51.476;7.552;2022-10-16T14:41:50;4.35;;;0.90;;
68940;SDS011;55982;51.476;7.552;2022-10-16T14:44:21;1.33;;;0.70;;
68940;SDS011;55982;51.476;7.552;2022-10-16T14:46:51;1.88;;;0.80;;
68940;SDS011;55982;51.476;7.552;2022-10-16T14:49:17;5.57;;;0.90;;
68940;SDS011;55982;51.476;7.552;2022-10-16T14:51:47;7.88;;;1.50;;
68940;SDS011;55982;51.476;7.552;2022-10-16T14:54:13;2.28;;;0.65;;
68940;SDS011;55982;51.476;7.552;2022-10-16T14:59:27;6.68;;;0.90;;
68940;SDS011;55982;51.476;7.552;2022-10-16T15:01:57;3.38;;;1.05;;
68940;SDS011;55982;51.476;7.552;2022-10-16T15:04:22;3.17;;;1.20;;
68940;SDS011;55982;51.476;7.552;2022-10-16T15:06:48;2.33;;;1.17;;
68940;SDS011;55982;51.476;7.552;2022-10-16T15:09:13;5.28;;;1.30;;
68940;SDS011;55982;51.476;7.552;2022-10-16T15:11:39;3.40;;;1.00;;
68940;SDS011;55982;51.476;7.552;2022-10-16T15:14:05;2.00;;;0.80;;
68940;SDS011;55982;51.476;7.552;2022-10-16T15:16:30;2.97;;;0.80;;
68940;SDS011;55982;51.476;7.552;2022-10-16T15:18:56;2.72;;;0.82;;
68940;SDS011;55982;51.476;7.552;2022-10-16T15:21:29;1.42;;;0.75;;
68940;SDS011;55982;51.476;7.552;2022-10-16T15:23:57;1.88;;;1.05;;
68940;SDS011;55982;51.476;7.552;2022-10-16T15:26:26;2.40;;;0.68;;
68940;SDS011;55982;51.476;7.552;2022-10-16T15:28:53;11.55;;;1.30;;
68940;SDS011;55982;51.476;7.552;2022-10-16T15:31:19;8.68;;;1.00;;
68940;SDS011;55982;51.476;7.552;2022-10-16T15:33:45;5.50;;;1.10;;
68940;SDS011;55982;51.476;7.552;2022-10-16T15:36:16;5.95;;;1.15;;
68940;SDS011;55982;51.476;7.552;2022-10-16T15:38:41;5.68;;;1.13;;
68940;SDS011;55982;51.476;7.552;2022-10-16T15:41:07;8.38;;;1.75;;
68940;SDS011;55982;51.476;7.552;2022-10-16T15:43:32;6.60;;;1.80;;
68940;SDS011;55982;51.476;7.552;2022-10-16T15:45:58;8.35;;;1.27;;
68940;SDS011;55982;51.476;7.552;2022-10-16T15:48:29;7.88;;;1.13;;
68940;SDS011;55982;51.476;7.552;2022-10-16T15:50:55;3.38;;;1.00;;
68940;SDS011;55982;51.476;7.552;2022-10-16T15:53:20;5.28;;;1.70;;
68940;SDS011;55982;51.476;7.552;2022-10-16T15:55:45;9.80;;;2.20;;
68940;SDS011;55982;51.476;7.552;2022-10-16T15:58:11;5.32;;;1.42;;
68940;SDS011;55982;51.476;7.552;2022-10-16T16:00:36;3.50;;;1.30;;
68940;SDS011;55982;51.476;7.552;2022-10-16T16:03:02;5.10;;;1.05;;
68940;SDS011;55982;51.476;7.552;2022-10-16T16:05:27;3.47;;;2.10;;
68940;SDS011;55982;51.476;7.552;2022-10-16T16:07:53;4.45;;;1.83;;
68940;SDS011;55982;51.476;7.552;2022-10-16T16:10:18;6.05;;;1.50;;
68940;SDS011;55982;51.476;7.552;2022-10-16T16:12:46;3.85;;;1.45;;
68940;SDS011;55982;51.476;7.552;2022-10-16T16:15:17;11.63;;;1.65;;
68940;SDS011;55982;51.476;7.552;2022-10-16T16:17:43;6.82;;;1.63;;
68940;SDS011;55982;51.476;7.552;2022-10-16T16:20:09;5.13;;;1.70;;
68940;SDS011;55982;51.476;7.552;2022-10-16T16:22:35;2.78;;;1.60;;
68940;SDS011;55982;51.476;7.552;2022-10-16T16:25:00;2.25;;;1.70;;
68940;SDS011;55982;51.476;7.552;2022-10-16T16:27:25;3.15;;;2.00;;
68940;SDS011;55982;51.476;7.552;2022-10-16T16:29:51;3.42;;;1.40;;
68940;SDS011;55982;51.476;7.552;2022-10-16T16:32:16;6.97;;;1.88;;
68940;SDS011;55982;51.476;7.552;2022-10-16T16:34:42;4.85;;;1.80;;
68940;SDS011;55982;51.476;7.552;2022-10-16T16:37:07;4.38;;;2.05;;
68940;SDS011;55982;51.476;7.552;2022-10-16T16:39:33;3.42;;;1.73;;
68940;SDS011;55982;51.476;7.552;2022-10-16T16:41:58;6.68;;;2.13;;
68940;SDS011;55982;51.476;7.552;2022-10-16T16:44:24;6.78;;;2.53;;
68940;SDS011;55982;51.476;7.552;2022-10-16T16:46:50;3.88;;;2.47;;
68940;SDS011;55982;51.476;7.552;2022-10-16T16:49:16;5.35;;;2.10;;
68940;SDS011;55982;51.476;7.552;2022-10-16T16:51:41;4.00;;;1.95;;
68940;SDS011;55982;51.476;7.552;2022-10-16T16:54:07;4.15;;;2.03;;
68940;SDS011;55982;51.476;7.552;2022-10-16T16:56:35;5.68;;;2.10;;
68940;SDS011;55982;51.476;7.552;2022-10-16T16:59:00;8.38;;;1.83;;
68940;SDS011;55982;51.476;7.552;2022-10-16T17:01:26;6.25;;;1.85;;
68940;SDS011;55982;51.476;7.552;2022-10-16T17:03:53;6.95;;;1.92;;
68940;SDS011;55982;51.476;7.552;2022-10-16T17:06:20;3.00;;;1.90;;
68940;SDS011;55982;51.476;7.552;2022-10-16T17:08:47;6.07;;;2.20;;
68940;SDS011;55982;51.476;7.552;2022-10-16T17:11:14;4.18;;;1.70;;
68940;SDS011;55982;51.476;7.552;2022-10-16T17:13:42;1.98;;;1.70;;